sensor_id;sensor_type;location;lat;lon;timestamp;P1;durP1;ratioP1;P2;durP2;ratioP2
12302;SDS011;6214;48.012;7.862;2023-06-22T00:01:19;8.70;;;6.05;;
12302;SDS011;6214;48.012;7.862;2023-06-22T00:03:47;9.63;;;6.28;;
12302;SDS011;6214;48.012;7.862;2023-06-22T00:06:14;8.20;;;6.25;;
12302;SDS011;6214;48.012;7.862;2023-06-22T00:08:41;9.27;;;6.20;;
12302;SDS011;6214;48.012;7.862;2023-06-22T00:11:08;8.57;;;6.03;;
12302;SDS011;6214;48.012;7.862;2023-06-22T00:13:35;7.93;;;5.93;;
12302;SDS011;6214;48.012;7.862;2023-06-22T00:16:02;8.32;;;6.00;;
12302;SDS011;6214;48.012;7.862;2023-06-22T00:18:29;8.50;;;5.70;;
12302;SDS011;6214;48.012;7.862;2023-06-22T00:20:57;8.90;;;6.10;;
12302;SDS011;6214;48.012;7.862;2023-06-22T00:23:24;9.20;;;5.80;;
12302;SDS011;6214;48.012;7.862;2023-06-22T00:25:52;9.90;;;5.70;;
12302;SDS011;6214;48.012;7.862;2023-06-22T00:28:19;8.30;;;5.88;;
12302;SDS011;6214;48.012;7.862;2023-06-22T00:30:46;7.43;;;5.30;;
12302;SDS011;6214;48.012;7.862;2023-06-22T00:33:15;8.30;;;5.90;;
12302;SDS011;6214;48.012;7.862;2023-06-22T00:35:42;8.55;;;6.30;;
12302;SDS011;6214;48.012;7.862;2023-06-22T00:38:09;9.57;;;6.35;;
12302;SDS011;6214;48.012;7.862;2023-06-22T00:40:36;8.55;;;6.30;;
12302;SDS011;6214;48.012;7.862;2023-06-22T00:43:05;8.30;;;5.90;;
12302;SDS011;6214;48.012;7.862;2023-06-22T00:45:32;8.40;;;6.30;;
12302;SDS011;6214;48.012;7.862;2023-06-22T00:48:00;9.50;;;6.50;;
12302;SDS011;6214;48.012;7.862;2023-06-22T00:50:28;9.05;;;6.38;;
12302;SDS011;6214;48.012;7.862;2023-06-22T00:53:03;8.73;;;6.00;;
12302;SDS011;6214;48.012;7.862;2023-06-22T00:55:37;8.43;;;6.32;;
12302;SDS011;6214;48.012;7.862;2023-06-22T00:58:13;8.50;;;6.20;;
12302;SDS011;6214;48.012;7.862;2023-06-22T01:00:41;8.60;;;6.00;;
12302;SDS011;6214;48.012;7.862;2023-06-22T01:03:08;8.90;;;6.00;;
12302;SDS011;6214;48.012;7.862;2023-06-22T01:05:36;9.02;;;5.90;;
12302;SDS011;6214;48.012;7.862;2023-06-22T01:16:40;9.32;;;6.10;;
12302;SDS011;6214;48.012;7.862;2023-06-22T01:21:59;8.68;;;6.38;;
12302;SDS011;6214;48.012;7.862;2023-06-22T01:24:32;8.35;;;5.80;;
12302;SDS011;6214;48.012;7.862;2023-06-22T01:29:58;9.35;;;6.30;;
12302;SDS011;6214;48.012;7.862;2023-06-22T01:32:30;8.52;;;6.00;;
12302;SDS011;6214;48.012;7.862;2023-06-22T01:35:00;12.48;;;6.20;;
12302;SDS011;6214;48.012;7.862;2023-06-22T01:37:29;9.23;;;5.85;;
12302;SDS011;6214;48.012;7.862;2023-06-22T01:39:58;9.15;;;5.90;;
12302;SDS011;6214;48.012;7.862;2023-06-22T01:42:25;9.25;;;5.80;;
12302;SDS011;6214;48.012;7.862;2023-06-22T01:44:53;8.27;;;5.43;;
12302;SDS011;6214;48.012;7.862;2023-06-22T01:47:21;8.60;;;5.67;;
12302;SDS011;6214;48.012;7.862;2023-06-22T01:49:49;8.30;;;5.80;;
12302;SDS011;6214;48.012;7.862;2023-06-22T01:52:18;8.68;;;5.85;;
12302;SDS011;6214;48.012;7.862;2023-06-22T01:54:47;8.93;;;6.20;;
12302;SDS011;6214;48.012;7.862;2023-06-22T01:57:14;10.65;;;6.13;;
12302;SDS011;6214;48.012;7.862;2023-06-22T02:02:19;8.45;;;5.90;;
12302;SDS011;6214;48.012;7.862;2023-06-22T02:04:55;9.90;;;6.38;;
12302;SDS011;6214;48.012;7.862;2023-06-22T02:07:27;7.90;;;5.90;;
12302;SDS011;6214;48.012;7.862;2023-06-22T02:09:58;9.93;;;6.30;;
12302;SDS011;6214;48.012;7.862;2023-06-22T02:12:26;10.05;;;6.60;;
12302;SDS011;6214;48.012;7.862;2023-06-22T02:14:55;9.57;;;7.10;;
12302;SDS011;6214;48.012;7.862;2023-06-22T02:17:23;10.40;;;7.50;;
12302;SDS011;6214;48.012;7.862;2023-06-22T02:19:51;9.25;;;6.78;;
12302;SDS011;6214;48.012;7.862;2023-06-22T02:22:18;10.43;;;7.40;;
12302;SDS011;6214;48.012;7.862;2023-06-22T02:24:45;10.35;;;6.82;;
12302;SDS011;6214;48.012;7.862;2023-06-22T02:27:12;10.77;;;6.90;;
12302;SDS011;6214;48.012;7.862;2023-06-22T02:29:39;9.45;;;6.80;;
12302;SDS011;6214;48.012;7.862;2023-06-22T02:32:06;10.23;;;6.20;;
12302;SDS011;6214;48.012;7.862;2023-06-22T02:34:33;10.02;;;6.70;;
12302;SDS011;6214;48.012;7.862;2023-06-22T02:37:00;7.75;;;6.00;;
12302;SDS011;6214;48.012;7.862;2023-06-22T02:39:28;9.38;;;6.50;;
12302;SDS011;6214;48.012;7.862;2023-06-22T02:41:55;9.13;;;6.65;;
12302;SDS011;6214;48.012;7.862;2023-06-22T02:44:22;8.60;;;6.40;;
12302;SDS011;6214;48.012;7.862;2023-06-22T02:46:49;8.52;;;6.38;;
12302;SDS011;6214;48.012;7.862;2023-06-22T02:49:16;9.85;;;6.20;;
12302;SDS011;6214;48.012;7.862;2023-06-22T02:51:47;9.95;;;6.43;;
12302;SDS011;6214;48.012;7.862;2023-06-22T02:54:14;8.68;;;6.60;;
12302;SDS011;6214;48.012;7.862;2023-06-22T02:56:41;8.60;;;6.13;;
12302;SDS011;6214;48.012;7.862;2023-06-22T02:59:10;8.90;;;6.65;;
12302;SDS011;6214;48.012;7.862;2023-06-22T03:01:37;8.75;;;6.00;;
12302;SDS011;6214;48.012;7.862;2023-06-22T03:04:07;8.90;;;6.40;;
12302;SDS011;6214;48.012;7.862;2023-06-22T03:06:35;9.23;;;6.60;;
12302;SDS011;6214;48.012;7.862;2023-06-22T03:09:03;8.80;;;6.40;;
12302;SDS011;6214;48.012;7.862;2023-06-22T03:11:32;9.30;;;6.50;;
12302;SDS011;6214;48.012;7.862;2023-06-22T03:13:59;8.70;;;6.20;;
12302;SDS011;6214;48.012;7.862;2023-06-22T03:16:27;9.20;;;6.47;;
12302;SDS011;6214;48.012;7.862;2023-06-22T03:18:55;9.00;;;6.10;;
12302;SDS011;6214;48.012;7.862;2023-06-22T03:21:22;9.25;;;6.65;;
12302;SDS011;6214;48.012;7.862;2023-06-22T03:23:50;9.13;;;6.60;;
12302;SDS011;6214;48.012;7.862;2023-06-22T03:26:17;9.70;;;6.60;;
12302;SDS011;6214;48.012;7.862;2023-06-22T03:28:44;8.52;;;6.43;;
12302;SDS011;6214;48.012;7.862;2023-06-22T03:31:11;9.60;;;6.38;;
12302;SDS011;6214;48.012;7.862;2023-06-22T03:33:38;9.40;;;6.15;;
12302;SDS011;6214;48.012;7.862;2023-06-22T03:36:05;9.63;;;5.97;;
12302;SDS011;6214;48.012;7.862;2023-06-22T03:38:32;8.43;;;6.05;;
12302;SDS011;6214;48.012;7.862;2023-06-22T03:40:59;11.77;;;6.60;;
12302;SDS011;6214;48.012;7.862;2023-06-22T03:43:26;9.07;;;6.20;;
12302;SDS011;6214;48.012;7.862;2023-06-22T03:45:53;9.10;;;6.20;;
12302;SDS011;6214;48.012;7.862;2023-06-22T03:48:19;10.30;;;6.25;;
12302;SDS011;6214;48.012;7.862;2023-06-22T03:50:46;8.00;;;5.97;;
12302;SDS011;6214;48.012;7.862;2023-06-22T03:53:13;8.40;;;5.60;;
12302;SDS011;6214;48.012;7.862;2023-06-22T03:55:45;8.07;;;6.20;;
12302;SDS011;6214;48.012;7.862;2023-06-22T03:58:18;8.32;;;5.80;;
12302;SDS011;6214;48.012;7.862;2023-06-22T04:00:46;7.75;;;5.40;;
12302;SDS011;6214;48.012;7.862;2023-06-22T04:03:14;8.35;;;5.95;;
12302;SDS011;6214;48.012;7.862;2023-06-22T04:05:41;8.20;;;5.40;;
12302;SDS011;6214;48.012;7.862;2023-06-22T04:08:08;8.50;;;5.38;;
12302;SDS011;6214;48.012;7.862;2023-06-22T04:10:35;7.90;;;5.63;;
12302;SDS011;6214;48.012;7.862;2023-06-22T04:13:02;10.35;;;5.82;;
12302;SDS011;6214;48.012;7.862;2023-06-22T04:15:29;9.55;;;5.80;;
12302;SDS011;6214;48.012;7.862;2023-06-22T04:17:56;9.52;;;5.95;;
12302;SDS011;6214;48.012;7.862;2023-06-22T04:20:23;9.13;;;5.97;;
12302;SDS011;6214;48.012;7.862;2023-06-22T04:22:55;9.40;;;6.25;;
12302;SDS011;6214;48.012;7.862;2023-06-22T04:25:22;8.57;;;6.33;;
12302;SDS011;6214;48.012;7.862;2023-06-22T04:27:49;8.27;;;5.40;;
12302;SDS011;6214;48.012;7.862;2023-06-22T04:30:17;8.73;;;6.00;;
12302;SDS011;6214;48.012;7.862;2023-06-22T04:32:44;8.75;;;6.00;;
12302;SDS011;6214;48.012;7.862;2023-06-22T04:35:11;9.60;;;6.00;;
12302;SDS011;6214;48.012;7.862;2023-06-22T04:37:38;10.52;;;6.47;;
12302;SDS011;6214;48.012;7.862;2023-06-22T04:40:06;8.43;;;5.60;;
12302;SDS011;6214;48.012;7.862;2023-06-22T04:42:34;11.32;;;6.05;;
12302;SDS011;6214;48.012;7.862;2023-06-22T04:45:02;10.18;;;6.40;;
12302;SDS011;6214;48.012;7.862;2023-06-22T04:47:29;11.40;;;6.78;;
12302;SDS011;6214;48.012;7.862;2023-06-22T04:49:56;10.15;;;6.57;;
12302;SDS011;6214;48.012;7.862;2023-06-22T04:52:23;10.20;;;6.40;;
12302;SDS011;6214;48.012;7.862;2023-06-22T04:54:51;8.45;;;6.10;;
12302;SDS011;6214;48.012;7.862;2023-06-22T04:57:21;11.30;;;6.30;;
12302;SDS011;6214;48.012;7.862;2023-06-22T04:59:59;11.23;;;6.43;;
12302;SDS011;6214;48.012;7.862;2023-06-22T05:02:38;10.95;;;6.47;;
12302;SDS011;6214;48.012;7.862;2023-06-22T05:05:06;11.50;;;6.77;;
12302;SDS011;6214;48.012;7.862;2023-06-22T05:07:34;9.50;;;6.10;;
12302;SDS011;6214;48.012;7.862;2023-06-22T05:10:01;10.10;;;5.97;;
12302;SDS011;6214;48.012;7.862;2023-06-22T05:12:29;9.13;;;6.40;;
12302;SDS011;6214;48.012;7.862;2023-06-22T05:14:56;10.95;;;6.60;;
12302;SDS011;6214;48.012;7.862;2023-06-22T05:17:24;11.15;;;6.72;;
12302;SDS011;6214;48.012;7.862;2023-06-22T05:19:51;11.38;;;6.38;;
12302;SDS011;6214;48.012;7.862;2023-06-22T05:22:18;11.15;;;6.30;;
12302;SDS011;6214;48.012;7.862;2023-06-22T05:24:45;10.43;;;6.72;;
12302;SDS011;6214;48.012;7.862;2023-06-22T05:27:13;8.73;;;5.90;;
12302;SDS011;6214;48.012;7.862;2023-06-22T05:29:40;11.93;;;6.78;;
12302;SDS011;6214;48.012;7.862;2023-06-22T05:32:08;9.53;;;6.37;;
12302;SDS011;6214;48.012;7.862;2023-06-22T05:34:35;8.95;;;5.60;;
12302;SDS011;6214;48.012;7.862;2023-06-22T05:37:02;8.52;;;5.68;;
12302;SDS011;6214;48.012;7.862;2023-06-22T05:39:29;9.90;;;6.07;;
12302;SDS011;6214;48.012;7.862;2023-06-22T05:41:56;10.40;;;5.40;;
12302;SDS011;6214;48.012;7.862;2023-06-22T05:44:23;9.48;;;5.88;;
12302;SDS011;6214;48.012;7.862;2023-06-22T05:46:50;9.70;;;5.90;;
12302;SDS011;6214;48.012;7.862;2023-06-22T05:49:17;9.10;;;6.10;;
12302;SDS011;6214;48.012;7.862;2023-06-22T05:51:44;11.48;;;5.97;;
12302;SDS011;6214;48.012;7.862;2023-06-22T05:54:10;10.20;;;5.88;;
12302;SDS011;6214;48.012;7.862;2023-06-22T05:56:39;9.48;;;5.85;;
12302;SDS011;6214;48.012;7.862;2023-06-22T05:59:06;9.93;;;5.40;;
12302;SDS011;6214;48.012;7.862;2023-06-22T06:01:33;11.73;;;6.40;;
12302;SDS011;6214;48.012;7.862;2023-06-22T06:04:02;10.27;;;6.40;;
12302;SDS011;6214;48.012;7.862;2023-06-22T06:06:30;9.07;;;6.07;;
12302;SDS011;6214;48.012;7.862;2023-06-22T06:08:57;10.82;;;6.00;;
12302;SDS011;6214;48.012;7.862;2023-06-22T06:11:25;11.07;;;7.20;;
12302;SDS011;6214;48.012;7.862;2023-06-22T06:13:52;9.20;;;5.50;;
12302;SDS011;6214;48.012;7.862;2023-06-22T06:16:19;9.82;;;6.03;;
12302;SDS011;6214;48.012;7.862;2023-06-22T06:18:46;9.15;;;5.93;;
12302;SDS011;6214;48.012;7.862;2023-06-22T06:21:15;9.23;;;6.40;;
12302;SDS011;6214;48.012;7.862;2023-06-22T06:23:42;9.23;;;5.72;;
12302;SDS011;6214;48.012;7.862;2023-06-22T06:26:09;9.73;;;6.90;;
12302;SDS011;6214;48.012;7.862;2023-06-22T06:28:36;10.77;;;6.90;;
12302;SDS011;6214;48.012;7.862;2023-06-22T06:31:03;10.57;;;7.57;;
12302;SDS011;6214;48.012;7.862;2023-06-22T06:33:33;10.35;;;7.35;;
12302;SDS011;6214;48.012;7.862;2023-06-22T06:36:00;11.30;;;7.53;;
12302;SDS011;6214;48.012;7.862;2023-06-22T06:38:32;9.15;;;6.70;;
12302;SDS011;6214;48.012;7.862;2023-06-22T06:40:59;11.75;;;7.72;;
12302;SDS011;6214;48.012;7.862;2023-06-22T06:43:26;10.43;;;6.70;;
12302;SDS011;6214;48.012;7.862;2023-06-22T06:45:53;9.60;;;7.00;;
12302;SDS011;6214;48.012;7.862;2023-06-22T06:48:20;10.70;;;7.90;;
12302;SDS011;6214;48.012;7.862;2023-06-22T06:50:46;11.32;;;8.20;;
12302;SDS011;6214;48.012;7.862;2023-06-22T06:53:13;12.05;;;7.40;;
12302;SDS011;6214;48.012;7.862;2023-06-22T06:55:40;11.68;;;7.90;;
12302;SDS011;6214;48.012;7.862;2023-06-22T06:58:07;11.40;;;7.95;;
12302;SDS011;6214;48.012;7.862;2023-06-22T07:00:36;11.10;;;7.50;;
12302;SDS011;6214;48.012;7.862;2023-06-22T07:03:03;11.50;;;8.10;;
12302;SDS011;6214;48.012;7.862;2023-06-22T07:05:30;10.85;;;7.40;;
12302;SDS011;6214;48.012;7.862;2023-06-22T07:07:57;10.70;;;7.43;;
12302;SDS011;6214;48.012;7.862;2023-06-22T07:10:24;10.65;;;7.47;;
12302;SDS011;6214;48.012;7.862;2023-06-22T07:12:51;10.85;;;7.57;;
12302;SDS011;6214;48.012;7.862;2023-06-22T07:15:18;9.23;;;6.85;;
12302;SDS011;6214;48.012;7.862;2023-06-22T07:17:45;9.65;;;7.40;;
12302;SDS011;6214;48.012;7.862;2023-06-22T07:20:12;10.77;;;7.32;;
12302;SDS011;6214;48.012;7.862;2023-06-22T07:22:39;9.77;;;7.20;;
12302;SDS011;6214;48.012;7.862;2023-06-22T07:25:08;9.45;;;6.80;;
12302;SDS011;6214;48.012;7.862;2023-06-22T07:27:36;9.45;;;6.68;;
12302;SDS011;6214;48.012;7.862;2023-06-22T07:30:10;8.98;;;6.20;;
12302;SDS011;6214;48.012;7.862;2023-06-22T07:32:37;9.48;;;6.10;;
12302;SDS011;6214;48.012;7.862;2023-06-22T07:35:04;9.25;;;6.47;;
12302;SDS011;6214;48.012;7.862;2023-06-22T07:37:32;9.93;;;6.35;;
12302;SDS011;6214;48.012;7.862;2023-06-22T07:40:01;10.13;;;5.78;;
12302;SDS011;6214;48.012;7.862;2023-06-22T07:42:32;11.30;;;6.10;;
12302;SDS011;6214;48.012;7.862;2023-06-22T07:44:59;11.13;;;6.40;;
12302;SDS011;6214;48.012;7.862;2023-06-22T07:47:27;9.27;;;6.10;;
12302;SDS011;6214;48.012;7.862;2023-06-22T07:49:58;11.70;;;7.57;;
12302;SDS011;6214;48.012;7.862;2023-06-22T07:52:28;10.60;;;6.70;;
12302;SDS011;6214;48.012;7.862;2023-06-22T07:54:57;11.43;;;6.53;;
12302;SDS011;6214;48.012;7.862;2023-06-22T07:57:24;10.45;;;6.70;;
12302;SDS011;6214;48.012;7.862;2023-06-22T08:00:03;11.43;;;6.90;;
12302;SDS011;6214;48.012;7.862;2023-06-22T08:02:49;10.93;;;6.80;;
12302;SDS011;6214;48.012;7.862;2023-06-22T08:05:16;10.75;;;6.90;;
12302;SDS011;6214;48.012;7.862;2023-06-22T08:07:48;10.30;;;6.53;;
12302;SDS011;6214;48.012;7.862;2023-06-22T08:10:15;8.77;;;6.70;;
12302;SDS011;6214;48.012;7.862;2023-06-22T08:12:42;10.82;;;6.55;;
12302;SDS011;6214;48.012;7.862;2023-06-22T08:15:09;9.85;;;6.90;;
12302;SDS011;6214;48.012;7.862;2023-06-22T08:17:37;10.98;;;6.80;;
12302;SDS011;6214;48.012;7.862;2023-06-22T08:20:05;9.07;;;6.43;;
12302;SDS011;6214;48.012;7.862;2023-06-22T08:22:37;11.27;;;6.70;;
12302;SDS011;6214;48.012;7.862;2023-06-22T08:25:05;10.38;;;7.15;;
12302;SDS011;6214;48.012;7.862;2023-06-22T08:27:32;10.55;;;7.03;;
12302;SDS011;6214;48.012;7.862;2023-06-22T08:29:59;10.10;;;7.00;;
12302;SDS011;6214;48.012;7.862;2023-06-22T08:32:27;10.93;;;6.50;;
12302;SDS011;6214;48.012;7.862;2023-06-22T08:34:55;11.55;;;6.32;;
12302;SDS011;6214;48.012;7.862;2023-06-22T08:37:23;9.65;;;5.68;;
12302;SDS011;6214;48.012;7.862;2023-06-22T08:39:51;8.40;;;5.40;;
12302;SDS011;6214;48.012;7.862;2023-06-22T08:42:18;10.52;;;6.28;;
12302;SDS011;6214;48.012;7.862;2023-06-22T08:44:44;10.73;;;5.70;;
12302;SDS011;6214;48.012;7.862;2023-06-22T08:47:11;9.23;;;5.80;;
12302;SDS011;6214;48.012;7.862;2023-06-22T08:49:38;8.93;;;5.75;;
12302;SDS011;6214;48.012;7.862;2023-06-22T08:52:05;8.90;;;5.72;;
12302;SDS011;6214;48.012;7.862;2023-06-22T08:54:34;8.70;;;5.85;;
12302;SDS011;6214;48.012;7.862;2023-06-22T08:57:01;9.57;;;6.50;;
12302;SDS011;6214;48.012;7.862;2023-06-22T08:59:28;13.30;;;7.00;;
12302;SDS011;6214;48.012;7.862;2023-06-22T09:01:55;10.35;;;6.20;;
12302;SDS011;6214;48.012;7.862;2023-06-22T09:04:24;10.88;;;6.53;;
12302;SDS011;6214;48.012;7.862;2023-06-22T09:06:51;10.55;;;6.50;;
12302;SDS011;6214;48.012;7.862;2023-06-22T09:09:18;11.15;;;6.55;;
12302;SDS011;6214;48.012;7.862;2023-06-22T09:11:45;10.80;;;6.10;;
12302;SDS011;6214;48.012;7.862;2023-06-22T09:14:12;10.98;;;5.80;;
12302;SDS011;6214;48.012;7.862;2023-06-22T09:16:39;12.63;;;6.23;;
12302;SDS011;6214;48.012;7.862;2023-06-22T09:19:06;8.98;;;6.32;;
12302;SDS011;6214;48.012;7.862;2023-06-22T09:21:33;8.95;;;6.18;;
12302;SDS011;6214;48.012;7.862;2023-06-22T09:24:00;8.60;;;5.90;;
12302;SDS011;6214;48.012;7.862;2023-06-22T09:26:27;9.05;;;6.20;;
12302;SDS011;6214;48.012;7.862;2023-06-22T09:28:54;9.07;;;5.70;;
12302;SDS011;6214;48.012;7.862;2023-06-22T09:31:21;8.57;;;5.82;;
12302;SDS011;6214;48.012;7.862;2023-06-22T09:33:52;8.73;;;5.85;;
12302;SDS011;6214;48.012;7.862;2023-06-22T09:36:20;10.02;;;6.10;;
12302;SDS011;6214;48.012;7.862;2023-06-22T09:38:48;8.45;;;5.70;;
12302;SDS011;6214;48.012;7.862;2023-06-22T09:41:22;8.18;;;5.85;;
12302;SDS011;6214;48.012;7.862;2023-06-22T09:43:49;10.00;;;6.00;;
12302;SDS011;6214;48.012;7.862;2023-06-22T09:46:18;7.60;;;5.45;;
12302;SDS011;6214;48.012;7.862;2023-06-22T09:48:48;8.85;;;6.03;;
12302;SDS011;6214;48.012;7.862;2023-06-22T09:51:14;9.83;;;6.10;;
12302;SDS011;6214;48.012;7.862;2023-06-22T09:53:43;10.75;;;5.50;;
12302;SDS011;6214;48.012;7.862;2023-06-22T09:56:10;9.68;;;5.50;;
12302;SDS011;6214;48.012;7.862;2023-06-22T09:58:42;9.13;;;5.90;;
12302;SDS011;6214;48.012;7.862;2023-06-22T10:01:10;9.75;;;5.53;;
12302;SDS011;6214;48.012;7.862;2023-06-22T10:03:37;9.18;;;5.60;;
12302;SDS011;6214;48.012;7.862;2023-06-22T10:06:04;9.20;;;5.85;;
12302;SDS011;6214;48.012;7.862;2023-06-22T10:08:31;9.70;;;6.22;;
12302;SDS011;6214;48.012;7.862;2023-06-22T10:10:58;10.30;;;5.93;;
12302;SDS011;6214;48.012;7.862;2023-06-22T10:13:25;10.68;;;6.50;;
12302;SDS011;6214;48.012;7.862;2023-06-22T10:15:52;9.93;;;6.10;;
12302;SDS011;6214;48.012;7.862;2023-06-22T10:18:19;10.38;;;6.30;;
12302;SDS011;6214;48.012;7.862;2023-06-22T10:20:50;12.05;;;6.50;;
12302;SDS011;6214;48.012;7.862;2023-06-22T10:23:20;10.45;;;6.38;;
12302;SDS011;6214;48.012;7.862;2023-06-22T10:25:47;10.33;;;5.80;;
12302;SDS011;6214;48.012;7.862;2023-06-22T10:28:14;11.38;;;6.13;;
12302;SDS011;6214;48.012;7.862;2023-06-22T10:30:42;9.77;;;6.35;;
12302;SDS011;6214;48.012;7.862;2023-06-22T10:33:09;10.40;;;6.13;;
12302;SDS011;6214;48.012;7.862;2023-06-22T10:35:37;10.50;;;6.20;;
12302;SDS011;6214;48.012;7.862;2023-06-22T10:38:04;10.65;;;6.50;;
12302;SDS011;6214;48.012;7.862;2023-06-22T10:40:32;9.55;;;6.70;;
12302;SDS011;6214;48.012;7.862;2023-06-22T10:42:59;10.02;;;6.40;;
12302;SDS011;6214;48.012;7.862;2023-06-22T10:45:26;12.30;;;6.60;;
12302;SDS011;6214;48.012;7.862;2023-06-22T10:47:55;10.60;;;6.47;;
12302;SDS011;6214;48.012;7.862;2023-06-22T10:50:22;8.80;;;6.10;;
12302;SDS011;6214;48.012;7.862;2023-06-22T10:52:50;10.07;;;6.10;;
12302;SDS011;6214;48.012;7.862;2023-06-22T10:55:17;10.05;;;5.90;;
12302;SDS011;6214;48.012;7.862;2023-06-22T10:57:44;11.02;;;6.18;;
12302;SDS011;6214;48.012;7.862;2023-06-22T11:00:13;9.93;;;5.18;;
12302;SDS011;6214;48.012;7.862;2023-06-22T11:02:41;10.18;;;5.80;;
12302;SDS011;6214;48.012;7.862;2023-06-22T11:05:08;9.23;;;6.00;;
12302;SDS011;6214;48.012;7.862;2023-06-22T11:07:36;9.73;;;5.65;;
12302;SDS011;6214;48.012;7.862;2023-06-22T11:10:08;8.93;;;5.70;;
12302;SDS011;6214;48.012;7.862;2023-06-22T11:12:35;8.93;;;5.90;;
12302;SDS011;6214;48.012;7.862;2023-06-22T11:15:02;8.95;;;5.80;;
12302;SDS011;6214;48.012;7.862;2023-06-22T11:17:30;8.73;;;5.60;;
12302;SDS011;6214;48.012;7.862;2023-06-22T11:19:56;10.50;;;5.70;;
12302;SDS011;6214;48.012;7.862;2023-06-22T11:22:23;8.30;;;5.22;;
12302;SDS011;6214;48.012;7.862;2023-06-22T11:24:50;10.77;;;6.00;;
12302;SDS011;6214;48.012;7.862;2023-06-22T11:27:17;9.50;;;6.40;;
12302;SDS011;6214;48.012;7.862;2023-06-22T11:29:44;10.35;;;6.30;;
12302;SDS011;6214;48.012;7.862;2023-06-22T11:32:11;9.80;;;6.00;;
12302;SDS011;6214;48.012;7.862;2023-06-22T11:34:40;10.10;;;6.30;;
12302;SDS011;6214;48.012;7.862;2023-06-22T11:37:07;11.15;;;6.20;;
12302;SDS011;6214;48.012;7.862;2023-06-22T11:39:33;11.10;;;6.30;;
12302;SDS011;6214;48.012;7.862;2023-06-22T11:42:13;11.10;;;6.40;;
12302;SDS011;6214;48.012;7.862;2023-06-22T11:44:39;10.65;;;6.35;;
12302;SDS011;6214;48.012;7.862;2023-06-22T11:47:06;9.85;;;6.40;;
12302;SDS011;6214;48.012;7.862;2023-06-22T11:49:33;9.82;;;6.00;;
12302;SDS011;6214;48.012;7.862;2023-06-22T11:52:00;10.75;;;6.30;;
12302;SDS011;6214;48.012;7.862;2023-06-22T11:54:27;10.20;;;6.70;;
12302;SDS011;6214;48.012;7.862;2023-06-22T11:56:54;10.13;;;6.45;;
12302;SDS011;6214;48.012;7.862;2023-06-22T11:59:21;10.48;;;6.30;;
12302;SDS011;6214;48.012;7.862;2023-06-22T12:01:48;9.75;;;5.95;;
12302;SDS011;6214;48.012;7.862;2023-06-22T12:04:17;9.48;;;6.10;;
12302;SDS011;6214;48.012;7.862;2023-06-22T12:06:44;10.25;;;6.53;;
12302;SDS011;6214;48.012;7.862;2023-06-22T12:09:11;13.80;;;6.30;;
12302;SDS011;6214;48.012;7.862;2023-06-22T12:11:39;10.65;;;6.53;;
12302;SDS011;6214;48.012;7.862;2023-06-22T12:14:06;11.27;;;5.78;;
12302;SDS011;6214;48.012;7.862;2023-06-22T12:16:33;9.15;;;5.80;;
12302;SDS011;6214;48.012;7.862;2023-06-22T12:19:00;9.90;;;6.18;;
12302;SDS011;6214;48.012;7.862;2023-06-22T12:21:27;10.97;;;6.40;;
12302;SDS011;6214;48.012;7.862;2023-06-22T12:23:55;9.80;;;6.20;;
12302;SDS011;6214;48.012;7.862;2023-06-22T12:26:22;10.40;;;6.27;;
12302;SDS011;6214;48.012;7.862;2023-06-22T12:28:48;9.63;;;6.10;;
12302;SDS011;6214;48.012;7.862;2023-06-22T12:31:15;10.90;;;6.10;;
12302;SDS011;6214;48.012;7.862;2023-06-22T12:33:43;10.87;;;7.40;;
12302;SDS011;6214;48.012;7.862;2023-06-22T12:36:10;12.65;;;7.50;;
12302;SDS011;6214;48.012;7.862;2023-06-22T12:38:37;12.13;;;6.47;;
12302;SDS011;6214;48.012;7.862;2023-06-22T12:41:03;13.05;;;7.00;;
12302;SDS011;6214;48.012;7.862;2023-06-22T12:43:30;11.60;;;6.47;;
12302;SDS011;6214;48.012;7.862;2023-06-22T12:45:57;10.15;;;6.20;;
12302;SDS011;6214;48.012;7.862;2023-06-22T12:48:25;11.50;;;6.30;;
12302;SDS011;6214;48.012;7.862;2023-06-22T12:50:53;13.20;;;6.53;;
12302;SDS011;6214;48.012;7.862;2023-06-22T12:53:21;11.60;;;6.03;;
12302;SDS011;6214;48.012;7.862;2023-06-22T12:55:49;10.00;;;5.50;;
12302;SDS011;6214;48.012;7.862;2023-06-22T12:58:16;9.65;;;5.40;;
12302;SDS011;6214;48.012;7.862;2023-06-22T13:00:43;9.63;;;5.70;;
12302;SDS011;6214;48.012;7.862;2023-06-22T13:03:10;12.63;;;6.28;;
12302;SDS011;6214;48.012;7.862;2023-06-22T13:05:37;9.45;;;5.63;;
12302;SDS011;6214;48.012;7.862;2023-06-22T13:08:04;9.40;;;5.90;;
12302;SDS011;6214;48.012;7.862;2023-06-22T13:10:31;10.85;;;5.25;;
12302;SDS011;6214;48.012;7.862;2023-06-22T13:12:58;9.75;;;5.25;;
12302;SDS011;6214;48.012;7.862;2023-06-22T13:15:30;15.57;;;5.72;;
12302;SDS011;6214;48.012;7.862;2023-06-22T13:17:57;9.75;;;5.32;;
12302;SDS011;6214;48.012;7.862;2023-06-22T13:20:24;9.50;;;5.20;;
12302;SDS011;6214;48.012;7.862;2023-06-22T13:22:51;9.07;;;5.30;;
12302;SDS011;6214;48.012;7.862;2023-06-22T13:25:19;9.57;;;5.28;;
12302;SDS011;6214;48.012;7.862;2023-06-22T13:27:49;11.02;;;5.43;;
12302;SDS011;6214;48.012;7.862;2023-06-22T13:30:16;11.53;;;5.20;;
12302;SDS011;6214;48.012;7.862;2023-06-22T13:32:43;9.38;;;5.22;;
12302;SDS011;6214;48.012;7.862;2023-06-22T13:35:10;9.45;;;5.20;;
12302;SDS011;6214;48.012;7.862;2023-06-22T13:37:38;13.90;;;5.70;;
12302;SDS011;6214;48.012;7.862;2023-06-22T13:40:05;11.43;;;5.45;;
12302;SDS011;6214;48.012;7.862;2023-06-22T13:42:33;9.82;;;4.90;;
12302;SDS011;6214;48.012;7.862;2023-06-22T13:45:00;10.90;;;5.30;;
12302;SDS011;6214;48.012;7.862;2023-06-22T13:47:27;9.68;;;5.20;;
12302;SDS011;6214;48.012;7.862;2023-06-22T13:49:56;10.27;;;4.95;;
12302;SDS011;6214;48.012;7.862;2023-06-22T13:52:26;10.23;;;5.22;;
12302;SDS011;6214;48.012;7.862;2023-06-22T13:54:53;10.45;;;4.85;;
12302;SDS011;6214;48.012;7.862;2023-06-22T13:57:20;12.80;;;5.65;;
12302;SDS011;6214;48.012;7.862;2023-06-22T13:59:47;10.83;;;5.00;;
12302;SDS011;6214;48.012;7.862;2023-06-22T14:02:14;8.95;;;4.40;;
12302;SDS011;6214;48.012;7.862;2023-06-22T14:04:41;10.80;;;4.50;;
12302;SDS011;6214;48.012;7.862;2023-06-22T14:07:08;10.27;;;5.10;;
12302;SDS011;6214;48.012;7.862;2023-06-22T14:09:35;11.52;;;5.00;;
12302;SDS011;6214;48.012;7.862;2023-06-22T14:12:05;9.15;;;5.05;;
12302;SDS011;6214;48.012;7.862;2023-06-22T14:14:34;10.18;;;5.35;;
12302;SDS011;6214;48.012;7.862;2023-06-22T14:17:01;9.67;;;5.10;;
12302;SDS011;6214;48.012;7.862;2023-06-22T14:19:28;8.50;;;4.40;;
12302;SDS011;6214;48.012;7.862;2023-06-22T14:21:55;10.35;;;4.90;;
12302;SDS011;6214;48.012;7.862;2023-06-22T14:24:23;11.40;;;4.73;;
12302;SDS011;6214;48.012;7.862;2023-06-22T14:26:53;10.70;;;4.35;;
12302;SDS011;6214;48.012;7.862;2023-06-22T14:29:21;10.27;;;4.40;;
12302;SDS011;6214;48.012;7.862;2023-06-22T14:31:49;10.18;;;4.70;;
12302;SDS011;6214;48.012;7.862;2023-06-22T14:34:16;9.90;;;4.60;;
12302;SDS011;6214;48.012;7.862;2023-06-22T14:36:43;9.30;;;4.60;;
12302;SDS011;6214;48.012;7.862;2023-06-22T14:39:10;9.88;;;4.75;;
12302;SDS011;6214;48.012;7.862;2023-06-22T14:41:37;11.48;;;5.15;;
12302;SDS011;6214;48.012;7.862;2023-06-22T14:44:04;10.55;;;5.00;;
12302;SDS011;6214;48.012;7.862;2023-06-22T14:46:31;10.95;;;5.30;;
12302;SDS011;6214;48.012;7.862;2023-06-22T14:48:58;9.70;;;5.07;;
12302;SDS011;6214;48.012;7.862;2023-06-22T14:51:25;11.65;;;4.60;;
12302;SDS011;6214;48.012;7.862;2023-06-22T14:53:53;9.40;;;5.10;;
12302;SDS011;6214;48.012;7.862;2023-06-22T14:56:19;9.43;;;4.72;;
12302;SDS011;6214;48.012;7.862;2023-06-22T14:58:46;8.30;;;4.45;;
12302;SDS011;6214;48.012;7.862;2023-06-22T15:01:13;8.07;;;4.40;;
12302;SDS011;6214;48.012;7.862;2023-06-22T15:03:42;12.00;;;4.75;;
12302;SDS011;6214;48.012;7.862;2023-06-22T15:06:09;9.93;;;4.85;;
12302;SDS011;6214;48.012;7.862;2023-06-22T15:08:37;10.18;;;4.70;;
12302;SDS011;6214;48.012;7.862;2023-06-22T15:11:05;10.38;;;4.70;;
12302;SDS011;6214;48.012;7.862;2023-06-22T15:13:32;10.00;;;5.00;;
12302;SDS011;6214;48.012;7.862;2023-06-22T15:16:01;10.23;;;4.63;;